Check out our new PWSWeather beta!
PWSweather.com
Personal Weather Stations
Station Observations
ISTOCKPO4
Cheadle HulmeGB SK8 6NZ

Cheadle HulmeGB SK8 6NZ

Lat: 53.363783, Lon: -2.1948438

Elevation: 261

Station Type: Davis VP2 with Daytime FARS

http://www.cheadlehulmeweather.co.uk

High Low Average
Temperature 49.8°F9.9°C 38.5°F3.6°C 45.5°F7.5°C
Dew Point 46.5°F8.1°C 34.2°F1.2°C 42.3°F5.7°C
Winds 14.0 mph 22.5 kmh 4.0 mph 6.4 kmh 9.0 mph S14.5 kmh S
Wind Gusts 29.0 mph46.7 kmh 8.0 mph12.9 kmh 19.0 mph30.6 kmh
Humidity 92% 83% 88%
Pressure 30.05 in1017.6 mb 29.76 in1007.8 mb -
Precipitation 0.32 in8.1 mm - -
Hour Temp Dew Point Humidity Winds Wind Gusts Pressure Precip Precip Rate Daily Precip Total
12:00 AM 39.0°F3.9°C 34.3°F1.3°C 83% 4.0 mph SSW6.4 kmh SSW 11.0 mph17.7 kmh 30.02 in1016.6 mb 0.00 in0.0 mm 0.00 in0.0 mm 0.00 in0.0 mm
12:15 AM 38.7°F3.7°C 34.2°F1.2°C 84% 4.0 mph S6.4 kmh S 8.0 mph12.9 kmh 30.02 in1016.6 mb 0.00 in0.0 mm 0.00 in0.0 mm 0.00 in0.0 mm
12:30 AM 38.5°F3.6°C 34.4°F1.3°C 85% 5.0 mph SSW8.0 kmh SSW 10.0 mph16.1 kmh 30.02 in1016.6 mb 0.00 in0.0 mm 0.00 in0.0 mm 0.00 in0.0 mm
12:45 AM 38.8°F3.8°C 34.7°F1.5°C 85% 5.0 mph SW8.0 kmh SW 13.0 mph20.9 kmh 30.03 in1016.9 mb 0.00 in0.0 mm 0.00 in0.0 mm 0.00 in0.0 mm
01:00 AM 39.0°F3.9°C 34.9°F1.6°C 85% 5.0 mph SW8.0 kmh SW 14.0 mph22.5 kmh 30.02 in1016.6 mb 0.00 in0.0 mm 0.00 in0.0 mm 0.00 in0.0 mm
01:15 AM 39.2°F4.0°C 35.1°F1.7°C 85% 5.0 mph SSW8.0 kmh SSW 12.0 mph19.3 kmh 30.03 in1016.9 mb 0.00 in0.0 mm 0.00 in0.0 mm 0.00 in0.0 mm
01:30 AM 39.4°F4.1°C 35.2°F1.8°C 85% 6.0 mph SSW9.7 kmh SSW 13.0 mph20.9 kmh 30.04 in1017.3 mb 0.00 in0.0 mm 0.00 in0.0 mm 0.00 in0.0 mm
01:45 AM 39.6°F4.2°C 35.4°F1.9°C 85% 6.0 mph SSW9.7 kmh SSW 13.0 mph20.9 kmh 30.04 in1017.3 mb 0.00 in0.0 mm 0.00 in0.0 mm 0.00 in0.0 mm
02:00 AM 39.9°F4.4°C 35.8°F2.1°C 85% 7.0 mph SSW11.3 kmh SSW 17.0 mph27.4 kmh 30.04 in1017.3 mb 0.00 in0.0 mm 0.00 in0.0 mm 0.00 in0.0 mm
02:15 AM 40.1°F4.5°C 35.7°F2.1°C 84% 7.0 mph SSW11.3 kmh SSW 13.0 mph20.9 kmh 30.04 in1017.3 mb 0.00 in0.0 mm 0.00 in0.0 mm 0.00 in0.0 mm
02:30 AM 40.5°F4.7°C 36.0°F2.2°C 84% 7.0 mph S11.3 kmh S 16.0 mph25.7 kmh 30.04 in1017.3 mb 0.00 in0.0 mm 0.00 in0.0 mm 0.00 in0.0 mm
02:45 AM 40.6°F4.8°C 36.2°F2.3°C 84% 8.0 mph SSW12.9 kmh SSW 16.0 mph25.7 kmh 30.04 in1017.3 mb 0.00 in0.0 mm 0.00 in0.0 mm 0.00 in0.0 mm
03:00 AM 40.6°F4.8°C 36.2°F2.3°C 84% 7.0 mph S11.3 kmh S 11.0 mph17.7 kmh 30.04 in1017.3 mb 0.00 in0.0 mm 0.00 in0.0 mm 0.00 in0.0 mm
03:15 AM 40.6°F4.8°C 36.2°F2.3°C 84% 7.0 mph S11.3 kmh S 13.0 mph20.9 kmh 30.04 in1017.3 mb 0.00 in0.0 mm 0.00 in0.0 mm 0.00 in0.0 mm
03:30 AM 39.9°F4.4°C 35.5°F1.9°C 84% 7.0 mph S11.3 kmh S 12.0 mph19.3 kmh 30.05 in1017.6 mb 0.00 in0.0 mm 0.00 in0.0 mm 0.00 in0.0 mm
03:45 AM 39.6°F4.2°C 35.7°F2.1°C 86% 7.0 mph S11.3 kmh S 11.0 mph17.7 kmh 30.04 in1017.3 mb 0.00 in0.0 mm 0.00 in0.0 mm 0.00 in0.0 mm
04:00 AM 39.7°F4.3°C 35.9°F2.2°C 86% 5.0 mph S8.0 kmh S 9.0 mph14.5 kmh 30.04 in1017.3 mb 0.00 in0.0 mm 0.00 in0.0 mm 0.00 in0.0 mm
04:15 AM 40.3°F4.6°C 36.4°F2.4°C 86% 7.0 mph S11.3 kmh S 17.0 mph27.4 kmh 30.04 in1017.3 mb 0.00 in0.0 mm 0.00 in0.0 mm 0.00 in0.0 mm
04:30 AM 40.8°F4.9°C 36.7°F2.6°C 85% 7.0 mph S11.3 kmh S 13.0 mph20.9 kmh 30.04 in1017.3 mb 0.00 in0.0 mm 0.00 in0.0 mm 0.00 in0.0 mm
04:45 AM 40.5°F4.7°C 36.3°F2.4°C 85% 7.0 mph S11.3 kmh S 12.0 mph19.3 kmh 30.03 in1016.9 mb 0.00 in0.0 mm 0.00 in0.0 mm 0.00 in0.0 mm
05:00 AM 40.5°F4.7°C 36.6°F2.6°C 86% 9.0 mph S14.5 kmh S 15.0 mph24.1 kmh 30.02 in1016.6 mb 0.00 in0.0 mm 0.00 in0.0 mm 0.00 in0.0 mm
05:15 AM 40.8°F4.9°C 37.0°F2.8°C 86% 9.0 mph S14.5 kmh S 15.0 mph24.1 kmh 30.02 in1016.6 mb 0.00 in0.0 mm 0.00 in0.0 mm 0.00 in0.0 mm
05:30 AM 41.7°F5.4°C 37.5°F3.1°C 85% 9.0 mph S14.5 kmh S 15.0 mph24.1 kmh 30.01 in1016.3 mb 0.00 in0.0 mm 0.00 in0.0 mm 0.00 in0.0 mm
05:45 AM 42.4°F5.8°C 37.6°F3.1°C 83% 9.0 mph S14.5 kmh S 16.0 mph25.7 kmh 30.01 in1016.3 mb 0.00 in0.0 mm 0.00 in0.0 mm 0.00 in0.0 mm
06:00 AM 42.6°F5.9°C 38.1°F3.4°C 84% 9.0 mph S14.5 kmh S 13.0 mph20.9 kmh 30.00 in1015.9 mb 0.00 in0.0 mm 0.00 in0.0 mm 0.00 in0.0 mm
06:15 AM 42.3°F5.7°C 38.1°F3.4°C 85% 8.0 mph S12.9 kmh S 14.0 mph22.5 kmh 30.01 in1016.3 mb 0.00 in0.0 mm 0.00 in0.0 mm 0.00 in0.0 mm
06:30 AM 42.3°F5.7°C 38.4°F3.6°C 86% 8.0 mph S12.9 kmh S 14.0 mph22.5 kmh 30.01 in1016.3 mb 0.00 in0.0 mm 0.00 in0.0 mm 0.00 in0.0 mm
06:45 AM 42.4°F5.8°C 38.5°F3.6°C 86% 8.0 mph S12.9 kmh S 14.0 mph22.5 kmh 30.01 in1016.3 mb 0.00 in0.0 mm 0.00 in0.0 mm 0.00 in0.0 mm
07:00 AM 43.0°F6.1°C 39.1°F3.9°C 86% 8.0 mph S12.9 kmh S 14.0 mph22.5 kmh 30.01 in1016.3 mb 0.00 in0.0 mm 0.00 in0.0 mm 0.00 in0.0 mm
07:15 AM 43.2°F6.2°C 39.3°F4.1°C 86% 8.0 mph S12.9 kmh S 15.0 mph24.1 kmh 30.00 in1015.9 mb 0.00 in0.0 mm 0.00 in0.0 mm 0.00 in0.0 mm
07:30 AM 43.3°F6.3°C 39.4°F4.1°C 86% 8.0 mph S12.9 kmh S 15.0 mph24.1 kmh 30.00 in1015.9 mb 0.00 in0.0 mm 0.00 in0.0 mm 0.00 in0.0 mm
07:45 AM 43.5°F6.4°C 39.9°F4.4°C 87% 9.0 mph S14.5 kmh S 14.0 mph22.5 kmh 30.00 in1015.9 mb 0.00 in0.0 mm 0.00 in0.0 mm 0.00 in0.0 mm
08:00 AM 43.5°F6.4°C 40.2°F4.6°C 88% 11.0 mph S17.7 kmh S 24.0 mph38.6 kmh 30.00 in1015.9 mb 0.01 in0.3 mm 0.01 in0.3 mm 0.01 in0.3 mm
08:15 AM 43.2°F6.2°C 40.4°F4.7°C 90% 9.0 mph S14.5 kmh S 16.0 mph25.7 kmh 29.99 in1015.6 mb 0.01 in0.3 mm 0.00 in0.0 mm 0.01 in0.3 mm
08:30 AM 43.3°F6.3°C 40.9°F4.9°C 91% 9.0 mph S14.5 kmh S 19.0 mph30.6 kmh 29.99 in1015.6 mb 0.02 in0.5 mm 0.04 in1.0 mm 0.02 in0.5 mm
08:45 AM 43.5°F6.4°C 41.1°F5.1°C 91% 8.0 mph S12.9 kmh S 16.0 mph25.7 kmh 30.00 in1015.9 mb 0.03 in0.8 mm 0.04 in1.0 mm 0.03 in0.8 mm
09:00 AM 43.7°F6.5°C 41.5°F5.3°C 92% 9.0 mph S14.5 kmh S 20.0 mph32.2 kmh 30.00 in1015.9 mb 0.03 in0.8 mm 0.00 in0.0 mm 0.04 in1.0 mm
09:15 AM 43.9°F6.6°C 41.7°F5.4°C 92% 8.0 mph S12.9 kmh S 17.0 mph27.4 kmh 30.00 in1015.9 mb 0.04 in1.0 mm 0.04 in1.0 mm 0.05 in1.3 mm
09:30 AM 44.2°F6.8°C 42.1°F5.6°C 92% 8.0 mph S12.9 kmh S 17.0 mph27.4 kmh 30.00 in1015.9 mb 0.03 in0.8 mm 0.00 in0.0 mm 0.05 in1.3 mm
09:45 AM 44.6°F7.0°C 42.4°F5.8°C 92% 8.0 mph S12.9 kmh S 17.0 mph27.4 kmh 29.99 in1015.6 mb 0.02 in0.5 mm 0.00 in0.0 mm 0.05 in1.3 mm
10:00 AM 45.1°F7.3°C 42.7°F5.9°C 91% 9.0 mph S14.5 kmh S 18.0 mph29.0 kmh 29.99 in1015.6 mb 0.01 in0.3 mm 0.00 in0.0 mm 0.05 in1.3 mm
10:15 AM 45.5°F7.5°C 43.0°F6.1°C 91% 9.0 mph S14.5 kmh S 16.0 mph25.7 kmh 29.98 in1015.2 mb 0.00 in0.0 mm 0.00 in0.0 mm 0.05 in1.3 mm
10:30 AM 46.2°F7.9°C 43.4°F6.3°C 90% 10.0 mph SSW16.1 kmh SSW 19.0 mph30.6 kmh 29.97 in1014.9 mb 0.00 in0.0 mm 0.00 in0.0 mm 0.05 in1.3 mm
10:45 AM 46.9°F8.3°C 43.6°F6.4°C 88% 10.0 mph SSW16.1 kmh SSW 20.0 mph32.2 kmh 29.97 in1014.9 mb 0.00 in0.0 mm 0.00 in0.0 mm 0.05 in1.3 mm
11:00 AM 47.3°F8.5°C 43.9°F6.6°C 88% 10.0 mph SSW16.1 kmh SSW 19.0 mph30.6 kmh 29.97 in1014.9 mb 0.00 in0.0 mm 0.00 in0.0 mm 0.05 in1.3 mm
11:15 AM 47.5°F8.6°C 43.8°F6.6°C 87% 10.0 mph SSW16.1 kmh SSW 22.0 mph35.4 kmh 29.96 in1014.6 mb 0.00 in0.0 mm 0.00 in0.0 mm 0.05 in1.3 mm
11:30 AM 47.5°F8.6°C 44.1°F6.7°C 88% 11.0 mph SSW17.7 kmh SSW 23.0 mph37.0 kmh 29.96 in1014.6 mb 0.01 in0.3 mm 0.04 in1.0 mm 0.06 in1.5 mm
11:45 AM 47.3°F8.5°C 44.2°F6.8°C 89% 10.0 mph SSW16.1 kmh SSW 20.0 mph32.2 kmh 29.96 in1014.6 mb 0.02 in0.5 mm 0.04 in1.0 mm 0.07 in1.8 mm
12:00 PM 47.7°F8.7°C 44.9°F7.2°C 90% 9.0 mph SSW14.5 kmh SSW 19.0 mph30.6 kmh 29.96 in1014.6 mb 0.02 in0.5 mm 0.00 in0.0 mm 0.07 in1.8 mm
12:15 PM 48.0°F8.9°C 44.9°F7.2°C 89% 10.0 mph SSW16.1 kmh SSW 20.0 mph32.2 kmh 29.96 in1014.6 mb 0.02 in0.5 mm 0.00 in0.0 mm 0.07 in1.8 mm
12:30 PM 48.4°F9.1°C 45.3°F7.4°C 89% 10.0 mph SSW16.1 kmh SSW 25.0 mph40.2 kmh 29.96 in1014.6 mb 0.01 in0.3 mm 0.00 in0.0 mm 0.07 in1.8 mm
12:45 PM 48.6°F9.2°C 45.2°F7.3°C 88% 10.0 mph SSW16.1 kmh SSW 21.0 mph33.8 kmh 29.95 in1014.2 mb 0.00 in0.0 mm 0.00 in0.0 mm 0.07 in1.8 mm
01:00 PM 48.4°F9.1°C 45.3°F7.4°C 89% 9.0 mph SSW14.5 kmh SSW 18.0 mph29.0 kmh 29.95 in1014.2 mb 0.00 in0.0 mm 0.00 in0.0 mm 0.07 in1.8 mm
01:15 PM 48.4°F9.1°C 45.3°F7.4°C 89% 8.0 mph SSW12.9 kmh SSW 19.0 mph30.6 kmh 29.95 in1014.2 mb 0.00 in0.0 mm 0.00 in0.0 mm 0.07 in1.8 mm
01:30 PM 48.4°F9.1°C 45.6°F7.6°C 90% 10.0 mph SSW16.1 kmh SSW 21.0 mph33.8 kmh 29.94 in1013.9 mb 0.01 in0.3 mm 0.04 in1.0 mm 0.08 in2.0 mm
01:45 PM 48.4°F9.1°C 45.6°F7.6°C 90% 10.0 mph SSW16.1 kmh SSW 24.0 mph38.6 kmh 29.94 in1013.9 mb 0.01 in0.3 mm 0.00 in0.0 mm 0.08 in2.0 mm
02:00 PM 48.6°F9.2°C 46.1°F7.8°C 91% 11.0 mph SSW17.7 kmh SSW 27.0 mph43.5 kmh 29.95 in1014.2 mb 0.02 in0.5 mm 0.01 in0.3 mm 0.09 in2.3 mm
02:15 PM 48.4°F9.1°C 45.9°F7.7°C 91% 9.0 mph SSW14.5 kmh SSW 21.0 mph33.8 kmh 29.94 in1013.9 mb 0.03 in0.8 mm 0.04 in1.0 mm 0.10 in2.5 mm
02:30 PM 48.2°F9.0°C 45.7°F7.6°C 91% 9.0 mph SSW14.5 kmh SSW 18.0 mph29.0 kmh 29.95 in1014.2 mb 0.03 in0.8 mm 0.00 in0.0 mm 0.11 in2.8 mm
02:45 PM 48.2°F9.0°C 46.0°F7.8°C 92% 10.0 mph SSW16.1 kmh SSW 20.0 mph32.2 kmh 29.95 in1014.2 mb 0.04 in1.0 mm 0.04 in1.0 mm 0.12 in3.0 mm
03:00 PM 48.4°F9.1°C 46.2°F7.9°C 92% 9.0 mph S14.5 kmh S 18.0 mph29.0 kmh 29.95 in1014.2 mb 0.04 in1.0 mm 0.00 in0.0 mm 0.13 in3.3 mm
03:15 PM 48.4°F9.1°C 46.2°F7.9°C 92% 8.0 mph S12.9 kmh S 17.0 mph27.4 kmh 29.93 in1013.5 mb 0.03 in0.8 mm 0.00 in0.0 mm 0.13 in3.3 mm
03:30 PM 48.6°F9.2°C 46.3°F7.9°C 92% 8.0 mph S12.9 kmh S 16.0 mph25.7 kmh 29.93 in1013.5 mb 0.02 in0.5 mm 0.00 in0.0 mm 0.13 in3.3 mm
03:45 PM 48.6°F9.2°C 46.1°F7.8°C 91% 8.0 mph S12.9 kmh S 15.0 mph24.1 kmh 29.92 in1013.2 mb 0.03 in0.8 mm 0.04 in1.0 mm 0.15 in3.8 mm
04:00 PM 48.6°F9.2°C 46.3°F7.9°C 92% 8.0 mph S12.9 kmh S 19.0 mph30.6 kmh 29.92 in1013.2 mb 0.03 in0.8 mm 0.00 in0.0 mm 0.16 in4.1 mm
04:15 PM 48.6°F9.2°C 46.3°F7.9°C 92% 10.0 mph S16.1 kmh S 20.0 mph32.2 kmh 29.92 in1013.2 mb 0.03 in0.8 mm 0.00 in0.0 mm 0.16 in4.1 mm
04:30 PM 48.6°F9.2°C 46.1°F7.8°C 91% 13.0 mph S20.9 kmh S 24.0 mph38.6 kmh 29.91 in1012.9 mb 0.03 in0.8 mm 0.00 in0.0 mm 0.16 in4.1 mm
04:45 PM 48.6°F9.2°C 46.1°F7.8°C 91% 10.0 mph S16.1 kmh S 23.0 mph37.0 kmh 29.92 in1013.2 mb 0.01 in0.3 mm 0.00 in0.0 mm 0.16 in4.1 mm
05:00 PM 48.6°F9.2°C 46.1°F7.8°C 91% 10.0 mph S16.1 kmh S 20.0 mph32.2 kmh 29.92 in1013.2 mb 0.01 in0.3 mm 0.00 in0.0 mm 0.17 in4.3 mm
05:15 PM 48.7°F9.3°C 46.2°F7.9°C 91% 12.0 mph S19.3 kmh S 23.0 mph37.0 kmh 29.91 in1012.9 mb 0.01 in0.3 mm 0.00 in0.0 mm 0.17 in4.3 mm
05:30 PM 48.7°F9.3°C 46.2°F7.9°C 91% 13.0 mph S20.9 kmh S 24.0 mph38.6 kmh 29.90 in1012.5 mb 0.02 in0.5 mm 0.04 in1.0 mm 0.18 in4.6 mm
05:45 PM 48.7°F9.3°C 46.2°F7.9°C 91% 11.0 mph S17.7 kmh S 20.0 mph32.2 kmh 29.90 in1012.5 mb 0.02 in0.5 mm 0.00 in0.0 mm 0.18 in4.6 mm
06:00 PM 48.7°F9.3°C 45.9°F7.7°C 90% 9.0 mph S14.5 kmh S 16.0 mph25.7 kmh 29.90 in1012.5 mb 0.01 in0.3 mm 0.00 in0.0 mm 0.18 in4.6 mm
06:15 PM 48.9°F9.4°C 46.1°F7.8°C 90% 10.0 mph S16.1 kmh S 20.0 mph32.2 kmh 29.89 in1012.2 mb 0.02 in0.5 mm 0.04 in1.0 mm 0.19 in4.8 mm
06:30 PM 48.9°F9.4°C 46.1°F7.8°C 90% 11.0 mph S17.7 kmh S 22.0 mph35.4 kmh 29.88 in1011.9 mb 0.01 in0.3 mm 0.00 in0.0 mm 0.19 in4.8 mm
06:45 PM 48.9°F9.4°C 46.1°F7.8°C 90% 10.0 mph S16.1 kmh S 23.0 mph37.0 kmh 29.88 in1011.9 mb 0.01 in0.3 mm 0.00 in0.0 mm 0.19 in4.8 mm
07:00 PM 49.5°F9.7°C 46.4°F8.0°C 89% 10.0 mph S16.1 kmh S 20.0 mph32.2 kmh 29.89 in1012.2 mb 0.01 in0.3 mm 0.00 in0.0 mm 0.19 in4.8 mm
07:15 PM 49.5°F9.7°C 46.1°F7.8°C 88% 10.0 mph S16.1 kmh S 17.0 mph27.4 kmh 29.88 in1011.9 mb 0.00 in0.0 mm 0.00 in0.0 mm 0.19 in4.8 mm
07:30 PM 49.6°F9.8°C 46.2°F7.9°C 88% 12.0 mph S19.3 kmh S 20.0 mph32.2 kmh 29.87 in1011.5 mb 0.00 in0.0 mm 0.00 in0.0 mm 0.19 in4.8 mm
07:45 PM 49.8°F9.9°C 46.4°F8.0°C 88% 13.0 mph S20.9 kmh S 24.0 mph38.6 kmh 29.86 in1011.2 mb 0.00 in0.0 mm 0.00 in0.0 mm 0.19 in4.8 mm
08:00 PM 49.6°F9.8°C 46.2°F7.9°C 88% 13.0 mph S20.9 kmh S 23.0 mph37.0 kmh 29.86 in1011.2 mb 0.00 in0.0 mm 0.00 in0.0 mm 0.19 in4.8 mm
08:15 PM 49.6°F9.8°C 46.2°F7.9°C 88% 14.0 mph S22.5 kmh S 27.0 mph43.5 kmh 29.85 in1010.8 mb 0.00 in0.0 mm 0.00 in0.0 mm 0.19 in4.8 mm
08:30 PM 49.6°F9.8°C 45.9°F7.7°C 87% 11.0 mph S17.7 kmh S 23.0 mph37.0 kmh 29.85 in1010.8 mb 0.00 in0.0 mm 0.00 in0.0 mm 0.19 in4.8 mm
08:45 PM 49.8°F9.9°C 46.1°F7.8°C 87% 14.0 mph S22.5 kmh S 29.0 mph46.7 kmh 29.85 in1010.8 mb 0.00 in0.0 mm 0.00 in0.0 mm 0.19 in4.8 mm
09:00 PM 49.5°F9.7°C 46.1°F7.8°C 88% 12.0 mph S19.3 kmh S 25.0 mph40.2 kmh 29.84 in1010.5 mb 0.01 in0.3 mm 0.01 in0.3 mm 0.20 in5.1 mm
09:15 PM 49.5°F9.7°C 46.1°F7.8°C 88% 12.0 mph S19.3 kmh S 20.0 mph32.2 kmh 29.83 in1010.2 mb 0.01 in0.3 mm 0.00 in0.0 mm 0.20 in5.1 mm
09:30 PM 49.3°F9.6°C 46.2°F7.9°C 89% 13.0 mph S20.9 kmh S 24.0 mph38.6 kmh 29.84 in1010.5 mb 0.02 in0.5 mm 0.04 in1.0 mm 0.21 in5.3 mm
09:45 PM 49.1°F9.5°C 46.0°F7.8°C 89% 12.0 mph S19.3 kmh S 23.0 mph37.0 kmh 29.83 in1010.2 mb 0.04 in1.0 mm 0.08 in2.0 mm 0.23 in5.8 mm
10:00 PM 48.9°F9.4°C 46.1°F7.8°C 90% 13.0 mph S20.9 kmh S 25.0 mph40.2 kmh 29.82 in1009.8 mb 0.04 in1.0 mm 0.00 in0.0 mm 0.24 in6.1 mm
10:15 PM 48.7°F9.3°C 46.2°F7.9°C 91% 12.0 mph S19.3 kmh S 22.0 mph35.4 kmh 29.82 in1009.8 mb 0.05 in1.3 mm 0.04 in1.0 mm 0.25 in6.4 mm
10:30 PM 48.7°F9.3°C 46.2°F7.9°C 91% 13.0 mph S20.9 kmh S 26.0 mph41.8 kmh 29.81 in1009.5 mb 0.05 in1.3 mm 0.00 in0.0 mm 0.26 in6.6 mm
10:45 PM 48.7°F9.3°C 46.2°F7.9°C 91% 14.0 mph S22.5 kmh S 29.0 mph46.7 kmh 29.80 in1009.1 mb 0.04 in1.0 mm 0.00 in0.0 mm 0.27 in6.9 mm
11:00 PM 48.7°F9.3°C 46.2°F7.9°C 91% 12.0 mph S19.3 kmh S 22.0 mph35.4 kmh 29.79 in1008.8 mb 0.04 in1.0 mm 0.00 in0.0 mm 0.28 in7.1 mm
11:15 PM 48.6°F9.2°C 46.1°F7.8°C 91% 14.0 mph S22.5 kmh S 24.0 mph38.6 kmh 29.78 in1008.5 mb 0.04 in1.0 mm 0.00 in0.0 mm 0.29 in7.4 mm
11:30 PM 48.6°F9.2°C 46.3°F7.9°C 92% 13.0 mph S20.9 kmh S 24.0 mph38.6 kmh 29.77 in1008.1 mb 0.05 in1.3 mm 0.04 in1.0 mm 0.31 in7.9 mm
11:45 PM 48.7°F9.3°C 46.5°F8.1°C 92% 14.0 mph S22.5 kmh S 28.0 mph45.1 kmh 29.76 in1007.8 mb 0.05 in1.3 mm 0.00 in0.0 mm 0.32 in8.1 mm